sensor_id;sensor_type;location;lat;lon;timestamp;pressure;altitude;pressure_sealevel;temperature;humidity
596;BME280;19946;49.306;11.350;2023-03-03T00:03:00;96486.38;;;-0.30;100.00
596;BME280;19946;49.306;11.350;2023-03-03T00:06:03;96510.13;;;-0.30;100.00
596;BME280;19946;49.306;11.350;2023-03-03T00:09:04;96459.50;;;-0.36;100.00
596;BME280;19946;49.306;11.350;2023-03-03T00:12:20;96372.91;;;-1.16;100.00
596;BME280;19946;49.306;11.350;2023-03-03T00:15:24;96391.97;;;-1.05;100.00
596;BME280;19946;49.306;11.350;2023-03-03T00:18:32;96503.13;;;-0.45;100.00
596;BME280;19946;49.306;11.350;2023-03-03T00:21:41;96411.06;;;-1.17;100.00
596;BME280;19946;49.306;11.350;2023-03-03T00:24:42;96416.50;;;-1.04;100.00
596;BME280;19946;49.306;11.350;2023-03-03T00:27:43;96414.84;;;-1.05;100.00
596;BME280;19946;49.306;11.350;2023-03-03T00:30:43;96470.06;;;-0.87;100.00
596;BME280;19946;49.306;11.350;2023-03-03T00:34:25;96482.34;;;-0.77;100.00
596;BME280;19946;49.306;11.350;2023-03-03T00:37:29;96378.34;;;-1.47;100.00
596;BME280;19946;49.306;11.350;2023-03-03T00:40:34;96399.09;;;-1.80;100.00
596;BME280;19946;49.306;11.350;2023-03-03T00:43:36;96489.38;;;-1.50;100.00
596;BME280;19946;49.306;11.350;2023-03-03T00:46:37;96504.03;;;-1.57;100.00
596;BME280;19946;49.306;11.350;2023-03-03T00:49:38;96522.78;;;-1.61;100.00
596;BME280;19946;49.306;11.350;2023-03-03T00:52:41;96447.44;;;-2.07;100.00
596;BME280;19946;49.306;11.350;2023-03-03T00:55:44;96436.34;;;-2.04;100.00
596;BME280;19946;49.306;11.350;2023-03-03T00:58:45;96519.19;;;-1.78;100.00
596;BME280;19946;49.306;11.350;2023-03-03T01:01:48;96487.00;;;-2.01;100.00
596;BME280;19946;49.306;11.350;2023-03-03T01:04:50;96509.63;;;-1.95;100.00
596;BME280;19946;49.306;11.350;2023-03-03T01:07:51;96415.56;;;-2.64;100.00
596;BME280;19946;49.306;11.350;2023-03-03T01:10:55;96432.63;;;-2.69;100.00
596;BME280;19946;49.306;11.350;2023-03-03T01:13:55;96407.91;;;-2.87;100.00
596;BME280;19946;49.306;11.350;2023-03-03T01:16:56;96396.94;;;-2.87;100.00
596;BME280;19946;49.306;11.350;2023-03-03T01:19:57;96489.16;;;-2.15;100.00
596;BME280;19946;49.306;11.350;2023-03-03T01:22:57;96397.31;;;-2.73;100.00
596;BME280;19946;49.306;11.350;2023-03-03T01:25:57;96448.38;;;-2.34;100.00
596;BME280;19946;49.306;11.350;2023-03-03T01:28:58;96403.31;;;-2.51;100.00
596;BME280;19946;49.306;11.350;2023-03-03T01:31:58;96499.31;;;-1.91;100.00
596;BME280;19946;49.306;11.350;2023-03-03T01:34:58;96477.66;;;-2.01;100.00
596;BME280;19946;49.306;11.350;2023-03-03T01:37:59;96498.78;;;-2.00;100.00
596;BME280;19946;49.306;11.350;2023-03-03T01:40:59;96389.19;;;-2.58;100.00
596;BME280;19946;49.306;11.350;2023-03-03T01:44:00;96452.16;;;-2.46;100.00
596;BME280;19946;49.306;11.350;2023-03-03T01:47:07;96466.91;;;-2.57;100.00
596;BME280;19946;49.306;11.350;2023-03-03T01:50:40;96450.16;;;-2.61;100.00
596;BME280;19946;49.306;11.350;2023-03-03T01:53:57;96505.00;;;-2.34;100.00
596;BME280;19946;49.306;11.350;2023-03-03T01:57:02;96496.34;;;-2.53;100.00
596;BME280;19946;49.306;11.350;2023-03-03T02:00:05;96487.44;;;-2.65;100.00
596;BME280;19946;49.306;11.350;2023-03-03T02:03:12;96482.78;;;-2.78;100.00
596;BME280;19946;49.306;11.350;2023-03-03T02:06:15;96418.53;;;-3.02;100.00
596;BME280;19946;49.306;11.350;2023-03-03T02:12:38;96300.53;;;-3.60;100.00
596;BME280;19946;49.306;11.350;2023-03-03T02:15:39;96434.19;;;-2.65;100.00
596;BME280;19946;49.306;11.350;2023-03-03T02:18:40;96421.44;;;-2.88;100.00
596;BME280;19946;49.306;11.350;2023-03-03T02:21:40;96484.41;;;-2.49;100.00
596;BME280;19946;49.306;11.350;2023-03-03T02:24:48;96416.31;;;-3.13;100.00
596;BME280;19946;49.306;11.350;2023-03-03T02:27:50;96436.47;;;-3.08;100.00
596;BME280;19946;49.306;11.350;2023-03-03T02:30:55;96483.88;;;-2.85;100.00
596;BME280;19946;49.306;11.350;2023-03-03T02:47:16;96341.31;;;-3.97;100.00
596;BME280;19946;49.306;11.350;2023-03-03T02:50:17;96387.38;;;-3.58;100.00
596;BME280;19946;49.306;11.350;2023-03-03T02:53:17;96361.09;;;-3.82;100.00
596;BME280;19946;49.306;11.350;2023-03-03T02:56:17;96461.03;;;-3.12;100.00
596;BME280;19946;49.306;11.350;2023-03-03T02:59:18;96504.78;;;-2.79;100.00
596;BME280;19946;49.306;11.350;2023-03-03T03:02:21;96304.09;;;-3.94;100.00
596;BME280;19946;49.306;11.350;2023-03-03T03:05:22;96448.19;;;-3.06;100.00
596;BME280;19946;49.306;11.350;2023-03-03T03:08:22;96513.31;;;-2.81;100.00
596;BME280;19946;49.306;11.350;2023-03-03T03:11:22;96408.63;;;-3.36;100.00
596;BME280;19946;49.306;11.350;2023-03-03T03:14:23;96486.91;;;-2.74;100.00
596;BME280;19946;49.306;11.350;2023-03-03T03:17:25;96424.22;;;-3.22;100.00
596;BME280;19946;49.306;11.350;2023-03-03T03:20:26;96489.63;;;-2.80;100.00
596;BME280;19946;49.306;11.350;2023-03-03T03:23:27;96474.91;;;-3.23;100.00
596;BME280;19946;49.306;11.350;2023-03-03T03:26:27;96486.34;;;-3.38;100.00
596;BME280;19946;49.306;11.350;2023-03-03T03:29:28;96493.09;;;-3.39;100.00
596;BME280;19946;49.306;11.350;2023-03-03T03:32:29;96396.56;;;-3.84;100.00
596;BME280;19946;49.306;11.350;2023-03-03T03:35:32;96389.72;;;-3.80;100.00
596;BME280;19946;49.306;11.350;2023-03-03T03:38:33;96462.16;;;-3.48;100.00
596;BME280;19946;49.306;11.350;2023-03-03T03:41:33;96377.53;;;-3.97;100.00
596;BME280;19946;49.306;11.350;2023-03-03T03:44:34;96269.84;;;-4.61;100.00
596;BME280;19946;49.306;11.350;2023-03-03T03:47:35;96389.16;;;-3.90;100.00
596;BME280;19946;49.306;11.350;2023-03-03T03:50:36;96347.72;;;-4.15;100.00
596;BME280;19946;49.306;11.350;2023-03-03T03:53:37;96199.78;;;-5.15;100.00
596;BME280;19946;49.306;11.350;2023-03-03T03:56:37;96470.56;;;-3.77;100.00
596;BME280;19946;49.306;11.350;2023-03-03T04:16:04;96527.19;;;-3.80;100.00
596;BME280;19946;49.306;11.350;2023-03-03T04:19:04;96338.72;;;-4.86;100.00
596;BME280;19946;49.306;11.350;2023-03-03T04:22:07;96359.94;;;-4.60;100.00
596;BME280;19946;49.306;11.350;2023-03-03T04:25:08;96513.81;;;-3.55;100.00
596;BME280;19946;49.306;11.350;2023-03-03T04:28:16;96486.56;;;-3.75;100.00
596;BME280;19946;49.306;11.350;2023-03-03T04:31:17;96415.88;;;-4.11;100.00
596;BME280;19946;49.306;11.350;2023-03-03T04:34:18;96327.38;;;-4.71;100.00
596;BME280;19946;49.306;11.350;2023-03-03T04:37:18;96456.41;;;-4.12;100.00
596;BME280;19946;49.306;11.350;2023-03-03T04:40:19;96472.09;;;-3.70;100.00
596;BME280;19946;49.306;11.350;2023-03-03T04:43:22;96475.06;;;-3.87;100.00
596;BME280;19946;49.306;11.350;2023-03-03T04:46:23;96460.63;;;-3.83;100.00
596;BME280;19946;49.306;11.350;2023-03-03T04:49:24;96362.03;;;-4.44;100.00
596;BME280;19946;49.306;11.350;2023-03-03T04:52:24;96531.47;;;-3.52;100.00
596;BME280;19946;49.306;11.350;2023-03-03T04:55:25;96416.25;;;-4.24;100.00
596;BME280;19946;49.306;11.350;2023-03-03T04:58:25;96515.41;;;-3.51;100.00
596;BME280;19946;49.306;11.350;2023-03-03T05:01:27;96322.50;;;-4.77;100.00
596;BME280;19946;49.306;11.350;2023-03-03T05:04:29;96409.28;;;-4.16;100.00
596;BME280;19946;49.306;11.350;2023-03-03T05:07:29;96387.44;;;-4.50;100.00
596;BME280;19946;49.306;11.350;2023-03-03T05:10:29;96525.88;;;-3.63;100.00
596;BME280;19946;49.306;11.350;2023-03-03T05:13:29;96532.59;;;-3.62;100.00
596;BME280;19946;49.306;11.350;2023-03-03T05:16:30;96521.00;;;-3.70;100.00
596;BME280;19946;49.306;11.350;2023-03-03T05:19:31;96530.13;;;-3.65;100.00
596;BME280;19946;49.306;11.350;2023-03-03T05:22:31;96439.56;;;-4.13;100.00
596;BME280;19946;49.306;11.350;2023-03-03T05:25:31;96526.78;;;-3.66;100.00
596;BME280;19946;49.306;11.350;2023-03-03T05:28:32;96386.13;;;-4.63;100.00
596;BME280;19946;49.306;11.350;2023-03-03T05:31:33;96513.97;;;-4.22;100.00
596;BME280;19946;49.306;11.350;2023-03-03T05:34:33;96543.34;;;-4.18;100.00
596;BME280;19946;49.306;11.350;2023-03-03T05:37:37;96547.22;;;-4.05;100.00
596;BME280;19946;49.306;11.350;2023-03-03T05:40:41;96541.16;;;-3.99;100.00
596;BME280;19946;49.306;11.350;2023-03-03T05:43:43;96484.81;;;-4.35;100.00
596;BME280;19946;49.306;11.350;2023-03-03T05:46:44;96538.59;;;-3.97;100.00
596;BME280;19946;49.306;11.350;2023-03-03T05:50:00;96526.22;;;-4.08;100.00
596;BME280;19946;49.306;11.350;2023-03-03T05:53:01;96499.50;;;-4.17;100.00
596;BME280;19946;49.306;11.350;2023-03-03T05:56:07;96485.41;;;-4.25;100.00
596;BME280;19946;49.306;11.350;2023-03-03T06:02:35;96534.91;;;-3.86;100.00
596;BME280;19946;49.306;11.350;2023-03-03T06:09:15;96536.91;;;-3.97;100.00
596;BME280;19946;49.306;11.350;2023-03-03T06:12:18;96337.13;;;-5.56;100.00
596;BME280;19946;49.306;11.350;2023-03-03T06:15:21;96568.41;;;-4.09;100.00
596;BME280;19946;49.306;11.350;2023-03-03T06:18:22;96573.09;;;-3.95;100.00
596;BME280;19946;49.306;11.350;2023-03-03T06:21:22;96391.44;;;-5.07;100.00
596;BME280;19946;49.306;11.350;2023-03-03T06:24:23;96553.03;;;-4.01;100.00
596;BME280;19946;49.306;11.350;2023-03-03T06:27:25;96579.63;;;-3.86;100.00
596;BME280;19946;49.306;11.350;2023-03-03T06:30:26;96566.09;;;-3.54;100.00
596;BME280;19946;49.306;11.350;2023-03-03T06:33:27;96413.66;;;-4.54;100.00
596;BME280;19946;49.306;11.350;2023-03-03T06:36:27;96420.88;;;-4.09;100.00
596;BME280;19946;49.306;11.350;2023-03-03T06:39:28;96358.97;;;-4.55;100.00
596;BME280;19946;49.306;11.350;2023-03-03T06:42:28;96475.19;;;-3.60;100.00
596;BME280;19946;49.306;11.350;2023-03-03T06:45:28;96612.09;;;-2.80;100.00
596;BME280;19946;49.306;11.350;2023-03-03T06:48:31;96616.28;;;-2.79;100.00
596;BME280;19946;49.306;11.350;2023-03-03T06:51:34;96484.38;;;-3.58;100.00
596;BME280;19946;49.306;11.350;2023-03-03T06:54:35;96535.03;;;-3.30;100.00
596;BME280;19946;49.306;11.350;2023-03-03T06:57:35;96554.09;;;-2.89;100.00
596;BME280;19946;49.306;11.350;2023-03-03T07:00:37;96580.06;;;-2.54;100.00
596;BME280;19946;49.306;11.350;2023-03-03T07:03:37;96544.31;;;-2.47;100.00
596;BME280;19946;49.306;11.350;2023-03-03T07:06:39;96528.28;;;-2.47;100.00
596;BME280;19946;49.306;11.350;2023-03-03T07:09:39;96624.75;;;-1.73;100.00
596;BME280;19946;49.306;11.350;2023-03-03T07:12:40;96562.34;;;-2.03;100.00
596;BME280;19946;49.306;11.350;2023-03-03T07:15:40;96558.13;;;-2.29;100.00
596;BME280;19946;49.306;11.350;2023-03-03T07:21:53;96531.09;;;-2.05;100.00
596;BME280;19946;49.306;11.350;2023-03-03T07:24:56;96604.72;;;-1.56;100.00
596;BME280;19946;49.306;11.350;2023-03-03T07:28:12;96614.03;;;-1.31;100.00
596;BME280;19946;49.306;11.350;2023-03-03T07:31:24;96484.72;;;-1.84;100.00
596;BME280;19946;49.306;11.350;2023-03-03T07:34:35;96537.75;;;-1.53;100.00
596;BME280;19946;49.306;11.350;2023-03-03T07:37:37;96634.50;;;-0.66;100.00
596;BME280;19946;49.306;11.350;2023-03-03T07:40:41;96554.31;;;-1.20;100.00
596;BME280;19946;49.306;11.350;2023-03-03T07:43:51;96602.66;;;-0.98;100.00
596;BME280;19946;49.306;11.350;2023-03-03T07:46:56;96639.78;;;-0.49;100.00
596;BME280;19946;49.306;11.350;2023-03-03T07:49:59;96631.22;;;-0.24;100.00
596;BME280;19946;49.306;11.350;2023-03-03T07:53:00;96473.34;;;-1.07;100.00
596;BME280;19946;49.306;11.350;2023-03-03T07:56:04;96594.09;;;-0.30;100.00
596;BME280;19946;49.306;11.350;2023-03-03T07:59:21;96585.19;;;-0.20;100.00
596;BME280;19946;49.306;11.350;2023-03-03T08:08:34;96648.22;;;-0.05;100.00
596;BME280;19946;49.306;11.350;2023-03-03T08:11:43;96614.91;;;-0.20;100.00
596;BME280;19946;49.306;11.350;2023-03-03T08:14:49;96556.69;;;-0.28;100.00
596;BME280;19946;49.306;11.350;2023-03-03T08:17:52;96647.50;;;0.54;100.00
596;BME280;19946;49.306;11.350;2023-03-03T08:20:55;96622.66;;;0.59;100.00
596;BME280;19946;49.306;11.350;2023-03-03T08:23:57;96657.69;;;0.95;100.00
596;BME280;19946;49.306;11.350;2023-03-03T08:26:57;96641.50;;;1.15;100.00
596;BME280;19946;49.306;11.350;2023-03-03T08:29:57;96662.88;;;1.50;100.00
596;BME280;19946;49.306;11.350;2023-03-03T08:32:58;96658.84;;;1.63;100.00
596;BME280;19946;49.306;11.350;2023-03-03T08:35:58;96469.50;;;0.47;100.00
596;BME280;19946;49.306;11.350;2023-03-03T08:38:58;96652.72;;;1.67;100.00
596;BME280;19946;49.306;11.350;2023-03-03T08:41:59;96659.94;;;1.76;100.00
596;BME280;19946;49.306;11.350;2023-03-03T08:44:59;96613.22;;;1.74;100.00
596;BME280;19946;49.306;11.350;2023-03-03T08:48:00;96658.50;;;2.06;100.00
596;BME280;19946;49.306;11.350;2023-03-03T08:51:01;96662.44;;;2.13;100.00
596;BME280;19946;49.306;11.350;2023-03-03T08:54:01;96549.78;;;1.30;100.00
596;BME280;19946;49.306;11.350;2023-03-03T08:57:02;96650.06;;;2.23;100.00
596;BME280;19946;49.306;11.350;2023-03-03T09:00:02;96608.63;;;2.16;100.00
596;BME280;19946;49.306;11.350;2023-03-03T09:03:03;96572.47;;;2.41;100.00
596;BME280;19946;49.306;11.350;2023-03-03T09:06:06;96598.03;;;2.91;100.00
596;BME280;19946;49.306;11.350;2023-03-03T09:09:06;96660.69;;;3.16;100.00
596;BME280;19946;49.306;11.350;2023-03-03T09:12:14;96626.09;;;3.09;100.00
596;BME280;19946;49.306;11.350;2023-03-03T09:18:30;96547.88;;;3.20;100.00
596;BME280;19946;49.306;11.350;2023-03-03T09:21:31;96539.75;;;2.97;100.00
596;BME280;19946;49.306;11.350;2023-03-03T09:24:34;96653.56;;;3.70;100.00
596;BME280;19946;49.306;11.350;2023-03-03T09:27:35;96637.38;;;3.85;100.00
596;BME280;19946;49.306;11.350;2023-03-03T09:30:40;96515.75;;;2.99;98.00
596;BME280;19946;49.306;11.350;2023-03-03T09:33:46;96625.78;;;3.46;97.61
596;BME280;19946;49.306;11.350;2023-03-03T09:36:52;96560.75;;;3.19;99.28
596;BME280;19946;49.306;11.350;2023-03-03T09:39:54;96648.38;;;4.32;91.11
596;BME280;19946;49.306;11.350;2023-03-03T09:43:03;96470.66;;;3.74;99.65
596;BME280;19946;49.306;11.350;2023-03-03T09:46:51;96618.59;;;4.74;83.81
596;BME280;19946;49.306;11.350;2023-03-03T09:53:15;96571.59;;;4.73;87.45
596;BME280;19946;49.306;11.350;2023-03-03T09:56:33;96643.22;;;5.62;72.60
596;BME280;19946;49.306;11.350;2023-03-03T09:59:46;96666.88;;;5.67;75.96
596;BME280;19946;49.306;11.350;2023-03-03T10:10:13;96597.81;;;5.62;68.66
596;BME280;19946;49.306;11.350;2023-03-03T10:13:33;96703.63;;;5.96;64.11
596;BME280;19946;49.306;11.350;2023-03-03T10:16:52;96634.41;;;6.72;70.50
596;BME280;19946;49.306;11.350;2023-03-03T10:20:24;96676.97;;;6.11;71.71
596;BME280;19946;49.306;11.350;2023-03-03T10:27:24;96657.56;;;6.59;65.61
596;BME280;19946;49.306;11.350;2023-03-03T10:30:56;96512.41;;;5.98;69.41
596;BME280;19946;49.306;11.350;2023-03-03T10:34:43;96551.03;;;6.23;69.70
596;BME280;19946;49.306;11.350;2023-03-03T10:44:29;96636.72;;;7.02;60.16
596;BME280;19946;49.306;11.350;2023-03-03T10:51:11;96581.56;;;6.28;60.99
596;BME280;19946;49.306;11.350;2023-03-03T11:01:15;96658.81;;;7.29;62.83
596;BME280;19946;49.306;11.350;2023-03-03T11:04:48;96563.72;;;6.77;62.50
596;BME280;19946;49.306;11.350;2023-03-03T11:07:57;96639.56;;;7.35;58.96
596;BME280;19946;49.306;11.350;2023-03-03T11:11:11;96544.34;;;6.72;61.79
596;BME280;19946;49.306;11.350;2023-03-03T11:14:19;96651.81;;;7.31;60.87
596;BME280;19946;49.306;11.350;2023-03-03T11:20:48;96513.78;;;6.67;61.96
596;BME280;19946;49.306;11.350;2023-03-03T11:24:01;96483.81;;;6.79;56.75
596;BME280;19946;49.306;11.350;2023-03-03T11:34:00;96652.31;;;7.86;61.26
596;BME280;19946;49.306;11.350;2023-03-03T11:37:12;96639.31;;;7.87;62.36
596;BME280;19946;49.306;11.350;2023-03-03T11:40:19;96645.31;;;7.88;58.52
596;BME280;19946;49.306;11.350;2023-03-03T11:43:26;96546.41;;;7.65;61.13
596;BME280;19946;49.306;11.350;2023-03-03T11:46:45;96633.47;;;8.09;56.80
596;BME280;19946;49.306;11.350;2023-03-03T11:50:08;96629.63;;;8.38;55.29
596;BME280;19946;49.306;11.350;2023-03-03T11:57:13;96632.28;;;8.13;56.80
596;BME280;19946;49.306;11.350;2023-03-03T12:00:36;96632.28;;;8.13;54.60
596;BME280;19946;49.306;11.350;2023-03-03T12:03:45;96635.53;;;8.28;55.20
596;BME280;19946;49.306;11.350;2023-03-03T12:07:10;96624.47;;;8.38;57.09
596;BME280;19946;49.306;11.350;2023-03-03T12:10:22;96528.69;;;7.60;57.55
596;BME280;19946;49.306;11.350;2023-03-03T12:16:57;96562.25;;;8.30;56.88
596;BME280;19946;49.306;11.350;2023-03-03T12:23:33;96602.75;;;8.87;54.73
596;BME280;19946;49.306;11.350;2023-03-03T12:26:49;96467.06;;;7.92;61.54
596;BME280;19946;49.306;11.350;2023-03-03T12:46:31;96570.00;;;8.88;59.77
596;BME280;19946;49.306;11.350;2023-03-03T12:49:54;96572.47;;;8.89;55.73
596;BME280;19946;49.306;11.350;2023-03-03T13:00:10;96561.75;;;8.49;55.60
596;BME280;19946;49.306;11.350;2023-03-03T13:06:43;96567.38;;;8.43;57.18
596;BME280;19946;49.306;11.350;2023-03-03T13:13:17;96580.28;;;8.65;56.87
596;BME280;19946;49.306;11.350;2023-03-03T13:16:40;96570.78;;;8.66;55.67
596;BME280;19946;49.306;11.350;2023-03-03T13:20:04;96573.16;;;8.69;57.80
596;BME280;19946;49.306;11.350;2023-03-03T13:29:27;96502.13;;;7.95;54.47
596;BME280;19946;49.306;11.350;2023-03-03T13:32:50;96568.19;;;8.55;56.38
596;BME280;19946;49.306;11.350;2023-03-03T13:35:58;96495.16;;;8.19;57.29
596;BME280;19946;49.306;11.350;2023-03-03T13:39:10;96382.44;;;7.40;57.08
596;BME280;19946;49.306;11.350;2023-03-03T13:42:36;96522.50;;;8.33;55.18
596;BME280;19946;49.306;11.350;2023-03-03T13:56:15;96537.09;;;8.56;59.49
596;BME280;19946;49.306;11.350;2023-03-03T14:00:04;96563.75;;;8.57;55.46
596;BME280;19946;49.306;11.350;2023-03-03T14:03:10;96556.47;;;8.51;56.76
596;BME280;19946;49.306;11.350;2023-03-03T14:06:20;96559.84;;;8.40;54.83
596;BME280;19946;49.306;11.350;2023-03-03T14:09:39;96522.66;;;8.31;57.40
596;BME280;19946;49.306;11.350;2023-03-03T14:16:07;96526.75;;;8.34;58.13
596;BME280;19946;49.306;11.350;2023-03-03T14:19:16;96433.63;;;7.80;56.46
596;BME280;19946;49.306;11.350;2023-03-03T14:22:25;96543.75;;;8.36;57.78
596;BME280;19946;49.306;11.350;2023-03-03T14:25:58;96537.34;;;8.53;58.44
596;BME280;19946;49.306;11.350;2023-03-03T14:32:27;96545.75;;;8.44;58.83
596;BME280;19946;49.306;11.350;2023-03-03T14:35:36;96539.19;;;8.40;60.12
596;BME280;19946;49.306;11.350;2023-03-03T14:38:40;96545.88;;;8.31;57.38
596;BME280;19946;49.306;11.350;2023-03-03T14:41:40;96540.75;;;8.19;57.37
596;BME280;19946;49.306;11.350;2023-03-03T14:47:45;96453.16;;;7.71;57.66
596;BME280;19946;49.306;11.350;2023-03-03T14:51:37;96532.88;;;8.09;59.11
596;BME280;19946;49.306;11.350;2023-03-03T14:54:20;96517.25;;;7.99;59.21
596;BME280;19946;49.306;11.350;2023-03-03T15:00:34;96526.19;;;8.06;57.20
596;BME280;19946;49.306;11.350;2023-03-03T15:03:35;96484.91;;;7.72;57.84
596;BME280;19946;49.306;11.350;2023-03-03T15:06:42;96540.56;;;7.98;58.03
596;BME280;19946;49.306;11.350;2023-03-03T15:09:48;96540.06;;;7.93;57.69
596;BME280;19946;49.306;11.350;2023-03-03T15:12:49;96387.13;;;7.11;57.91
596;BME280;19946;49.306;11.350;2023-03-03T15:19:13;96429.09;;;7.24;59.89
596;BME280;19946;49.306;11.350;2023-03-03T15:22:51;96531.63;;;7.91;61.97
596;BME280;19946;49.306;11.350;2023-03-03T15:32:32;96534.44;;;7.88;59.68
596;BME280;19946;49.306;11.350;2023-03-03T15:42:14;96472.03;;;7.48;60.23
596;BME280;19946;49.306;11.350;2023-03-03T15:45:35;96431.63;;;7.13;58.87
596;BME280;19946;49.306;11.350;2023-03-03T15:48:57;96524.47;;;7.59;62.72
596;BME280;19946;49.306;11.350;2023-03-03T15:55:58;96519.69;;;7.42;58.65
596;BME280;19946;49.306;11.350;2023-03-03T15:59:23;96505.41;;;7.25;57.97
596;BME280;19946;49.306;11.350;2023-03-03T16:02:45;96495.38;;;7.46;56.97
596;BME280;19946;49.306;11.350;2023-03-03T16:05:58;96494.41;;;7.23;56.47
596;BME280;19946;49.306;11.350;2023-03-03T16:12:46;96521.34;;;7.07;61.13
596;BME280;19946;49.306;11.350;2023-03-03T16:16:10;96556.06;;;7.14;64.42
596;BME280;19946;49.306;11.350;2023-03-03T16:19:35;96555.16;;;7.02;66.72
596;BME280;19946;49.306;11.350;2023-03-03T16:26:20;96548.56;;;6.60;70.04
596;BME280;19946;49.306;11.350;2023-03-03T16:30:02;96566.69;;;6.58;69.15
596;BME280;19946;49.306;11.350;2023-03-03T16:36:51;96454.09;;;5.46;71.91
596;BME280;19946;49.306;11.350;2023-03-03T16:39:55;96468.13;;;5.41;70.90
596;BME280;19946;49.306;11.350;2023-03-03T16:43:05;96507.88;;;5.62;67.76
596;BME280;19946;49.306;11.350;2023-03-03T16:46:48;96597.53;;;5.94;70.60
596;BME280;19946;49.306;11.350;2023-03-03T16:56:35;96463.19;;;4.70;74.87
596;BME280;19946;49.306;11.350;2023-03-03T16:59:46;96496.38;;;4.73;77.82
596;BME280;19946;49.306;11.350;2023-03-03T17:02:57;96608.13;;;5.34;78.68
596;BME280;19946;49.306;11.350;2023-03-03T17:06:18;96460.47;;;4.30;80.92
596;BME280;19946;49.306;11.350;2023-03-03T17:09:32;96623.25;;;5.10;83.37
596;BME280;19946;49.306;11.350;2023-03-03T17:13:03;96620.34;;;5.02;85.20
596;BME280;19946;49.306;11.350;2023-03-03T17:16:19;96625.16;;;4.78;88.84
596;BME280;19946;49.306;11.350;2023-03-03T17:23:20;96634.94;;;4.57;96.13
596;BME280;19946;49.306;11.350;2023-03-03T17:26:29;96648.84;;;4.39;100.00
596;BME280;19946;49.306;11.350;2023-03-03T17:32:52;96653.03;;;4.10;100.00
596;BME280;19946;49.306;11.350;2023-03-03T17:36:10;96662.88;;;4.02;100.00
596;BME280;19946;49.306;11.350;2023-03-03T17:39:21;96577.59;;;3.23;100.00
596;BME280;19946;49.306;11.350;2023-03-03T17:42:32;96666.44;;;3.84;100.00
596;BME280;19946;49.306;11.350;2023-03-03T17:45:37;96570.66;;;3.09;100.00
596;BME280;19946;49.306;11.350;2023-03-03T17:49:05;96584.22;;;2.78;100.00
596;BME280;19946;49.306;11.350;2023-03-03T17:52:33;96669.88;;;3.20;100.00
596;BME280;19946;49.306;11.350;2023-03-03T17:59:01;96593.25;;;3.01;100.00
596;BME280;19946;49.306;11.350;2023-03-03T18:02:31;96684.44;;;3.51;100.00
596;BME280;19946;49.306;11.350;2023-03-03T18:05:58;96690.53;;;3.33;100.00
596;BME280;19946;49.306;11.350;2023-03-03T18:09:20;96683.78;;;3.14;100.00
596;BME280;19946;49.306;11.350;2023-03-03T18:12:39;96673.47;;;3.00;100.00
596;BME280;19946;49.306;11.350;2023-03-03T18:15:57;96615.09;;;2.41;100.00
596;BME280;19946;49.306;11.350;2023-03-03T18:22:28;96698.25;;;2.48;100.00
596;BME280;19946;49.306;11.350;2023-03-03T18:25:53;96709.69;;;2.58;100.00
596;BME280;19946;49.306;11.350;2023-03-03T18:29:19;96703.13;;;2.52;100.00
596;BME280;19946;49.306;11.350;2023-03-03T18:32:20;96666.66;;;2.14;100.00
596;BME280;19946;49.306;11.350;2023-03-03T18:35:44;96487.41;;;0.83;100.00
596;BME280;19946;49.306;11.350;2023-03-03T18:38:45;96570.06;;;1.33;100.00
596;BME280;19946;49.306;11.350;2023-03-03T18:48:47;96718.53;;;2.34;100.00
596;BME280;19946;49.306;11.350;2023-03-03T18:51:50;96708.25;;;2.16;100.00
596;BME280;19946;49.306;11.350;2023-03-03T18:55:19;96582.78;;;1.52;100.00
596;BME280;19946;49.306;11.350;2023-03-03T18:58:47;96698.03;;;2.16;100.00
596;BME280;19946;49.306;11.350;2023-03-03T19:01:51;96658.63;;;1.86;100.00
596;BME280;19946;49.306;11.350;2023-03-03T19:08:24;96631.75;;;1.41;100.00
596;BME280;19946;49.306;11.350;2023-03-03T19:11:54;96724.25;;;1.84;100.00
596;BME280;19946;49.306;11.350;2023-03-03T19:14:55;96619.16;;;1.01;100.00
596;BME280;19946;49.306;11.350;2023-03-03T19:21:21;96666.53;;;1.06;100.00
596;BME280;19946;49.306;11.350;2023-03-03T19:24:28;96588.47;;;0.65;100.00
596;BME280;19946;49.306;11.350;2023-03-03T19:27:36;96726.06;;;1.44;100.00
596;BME280;19946;49.306;11.350;2023-03-03T19:30:54;96604.34;;;0.51;100.00
596;BME280;19946;49.306;11.350;2023-03-03T19:34:05;96644.00;;;0.57;100.00
596;BME280;19946;49.306;11.350;2023-03-03T19:37:49;96720.66;;;0.72;100.00
596;BME280;19946;49.306;11.350;2023-03-03T19:41:21;96727.81;;;0.64;100.00
596;BME280;19946;49.306;11.350;2023-03-03T19:48:00;96488.78;;;-1.12;100.00
596;BME280;19946;49.306;11.350;2023-03-03T19:51:39;96738.06;;;0.21;100.00
596;BME280;19946;49.306;11.350;2023-03-03T19:54:56;96657.91;;;-0.34;100.00
596;BME280;19946;49.306;11.350;2023-03-03T20:01:42;96754.38;;;-0.07;100.00
596;BME280;19946;49.306;11.350;2023-03-03T20:05:22;96738.25;;;-0.29;100.00
596;BME280;19946;49.306;11.350;2023-03-03T20:08:24;96716.00;;;-0.46;100.00
596;BME280;19946;49.306;11.350;2023-03-03T20:11:45;96740.16;;;-0.34;100.00
596;BME280;19946;49.306;11.350;2023-03-03T20:14:54;96758.66;;;-0.54;100.00
596;BME280;19946;49.306;11.350;2023-03-03T20:18:13;96680.31;;;-1.14;100.00
596;BME280;19946;49.306;11.350;2023-03-03T20:21:43;96760.53;;;-0.82;100.00
596;BME280;19946;49.306;11.350;2023-03-03T20:25:10;96754.56;;;-1.06;100.00
596;BME280;19946;49.306;11.350;2023-03-03T20:31:58;96731.56;;;-1.26;100.00
596;BME280;19946;49.306;11.350;2023-03-03T20:35:27;96742.44;;;-1.23;100.00
596;BME280;19946;49.306;11.350;2023-03-03T20:39:24;96771.91;;;-1.17;100.00
596;BME280;19946;49.306;11.350;2023-03-03T20:42:45;96774.13;;;-1.33;100.00
596;BME280;19946;49.306;11.350;2023-03-03T20:45:46;96783.25;;;-1.54;100.00
596;BME280;19946;49.306;11.350;2023-03-03T20:48:57;96745.06;;;-1.77;100.00
596;BME280;19946;49.306;11.350;2023-03-03T20:52:11;96777.91;;;-1.72;100.00
596;BME280;19946;49.306;11.350;2023-03-03T20:55:27;96724.44;;;-2.21;100.00